Terminal Aerodrome Forecast
Issued by NWS Wilmington, OH

Home | Current Version | Previous Version | Text Only | Print | Product List | Glossary On
Versions: 1 2 3 4 5 6 7 8 9 10 11 12 13 14 15 16 17 18 19 20 21 22 23 24 25 26
000
FTUS41 KILN 220030 AAB
TAFILN
TAF AMD
KILN 220030Z 2201/2224 32010G20KT P6SM VCTS BKN050CB
     FM220200 31010KT P6SM VCTS OVC050CB
      TEMPO 2202/2205 2SM -TSRA BR OVC025CB
     FM220700 22004KT P6SM VCSH BKN050
     FM220900 22004KT P6SM BKN080
     FM221500 23008KT P6SM VCSH BKN050=

USA.gov is the U.S. government's official web portal to all federal, state and local government web resources and services.